sensor_id;sensor_type;location;lat;lon;timestamp;P1;durP1;ratioP1;P2;durP2;ratioP2
11125;SDS011;5617;54.046;10.676;2023-06-26T00:01:34;3.60;;;3.37;;
11125;SDS011;5617;54.046;10.676;2023-06-26T00:03:44;3.50;;;3.30;;
11125;SDS011;5617;54.046;10.676;2023-06-26T00:05:51;3.27;;;3.07;;
11125;SDS011;5617;54.046;10.676;2023-06-26T00:07:58;4.50;;;3.90;;
11125;SDS011;5617;54.046;10.676;2023-06-26T00:10:06;4.07;;;3.77;;
11125;SDS011;5617;54.046;10.676;2023-06-26T00:12:14;4.37;;;4.07;;
11125;SDS011;5617;54.046;10.676;2023-06-26T00:14:22;4.17;;;3.87;;
11125;SDS011;5617;54.046;10.676;2023-06-26T00:16:29;4.33;;;3.80;;
11125;SDS011;5617;54.046;10.676;2023-06-26T00:18:37;4.07;;;3.67;;
11125;SDS011;5617;54.046;10.676;2023-06-26T00:20:46;4.97;;;3.57;;
11125;SDS011;5617;54.046;10.676;2023-06-26T00:22:55;4.07;;;3.67;;
11125;SDS011;5617;54.046;10.676;2023-06-26T00:25:05;4.27;;;3.97;;
11125;SDS011;5617;54.046;10.676;2023-06-26T00:27:13;3.50;;;3.20;;
11125;SDS011;5617;54.046;10.676;2023-06-26T00:29:20;3.50;;;3.30;;
11125;SDS011;5617;54.046;10.676;2023-06-26T00:31:28;3.73;;;3.43;;
11125;SDS011;5617;54.046;10.676;2023-06-26T00:33:35;4.53;;;4.17;;
11125;SDS011;5617;54.046;10.676;2023-06-26T00:35:43;3.63;;;3.40;;
11125;SDS011;5617;54.046;10.676;2023-06-26T00:37:52;3.67;;;3.47;;
11125;SDS011;5617;54.046;10.676;2023-06-26T00:40:00;4.07;;;3.77;;
11125;SDS011;5617;54.046;10.676;2023-06-26T00:42:08;3.90;;;3.60;;
11125;SDS011;5617;54.046;10.676;2023-06-26T00:44:16;3.83;;;3.53;;
11125;SDS011;5617;54.046;10.676;2023-06-26T00:46:23;3.97;;;3.57;;
11125;SDS011;5617;54.046;10.676;2023-06-26T00:48:31;3.80;;;3.50;;
11125;SDS011;5617;54.046;10.676;2023-06-26T00:50:39;4.00;;;3.70;;
11125;SDS011;5617;54.046;10.676;2023-06-26T00:52:48;3.93;;;3.60;;
11125;SDS011;5617;54.046;10.676;2023-06-26T00:54:57;3.70;;;3.40;;
11125;SDS011;5617;54.046;10.676;2023-06-26T00:57:05;3.97;;;3.57;;
11125;SDS011;5617;54.046;10.676;2023-06-26T00:59:12;3.87;;;3.57;;
11125;SDS011;5617;54.046;10.676;2023-06-26T01:01:20;3.80;;;3.50;;
11125;SDS011;5617;54.046;10.676;2023-06-26T01:03:32;3.47;;;3.27;;
11125;SDS011;5617;54.046;10.676;2023-06-26T01:05:39;4.10;;;3.80;;
11125;SDS011;5617;54.046;10.676;2023-06-26T01:07:47;3.63;;;3.10;;
11125;SDS011;5617;54.046;10.676;2023-06-26T01:09:59;4.00;;;3.60;;
11125;SDS011;5617;54.046;10.676;2023-06-26T01:12:08;3.80;;;3.50;;
11125;SDS011;5617;54.046;10.676;2023-06-26T01:14:15;3.27;;;3.07;;
11125;SDS011;5617;54.046;10.676;2023-06-26T01:16:23;3.50;;;3.20;;
11125;SDS011;5617;54.046;10.676;2023-06-26T01:18:32;3.83;;;3.50;;
11125;SDS011;5617;54.046;10.676;2023-06-26T01:20:41;4.47;;;3.60;;
11125;SDS011;5617;54.046;10.676;2023-06-26T01:22:53;3.67;;;3.37;;
11125;SDS011;5617;54.046;10.676;2023-06-26T01:25:15;4.87;;;4.03;;
11125;SDS011;5617;54.046;10.676;2023-06-26T01:27:31;3.87;;;3.57;;
11125;SDS011;5617;54.046;10.676;2023-06-26T01:29:40;4.00;;;3.57;;
11125;SDS011;5617;54.046;10.676;2023-06-26T01:31:48;3.83;;;3.53;;
11125;SDS011;5617;54.046;10.676;2023-06-26T01:33:57;3.90;;;3.60;;
11125;SDS011;5617;54.046;10.676;2023-06-26T01:36:05;3.87;;;3.47;;
11125;SDS011;5617;54.046;10.676;2023-06-26T01:38:14;3.97;;;3.67;;
11125;SDS011;5617;54.046;10.676;2023-06-26T01:40:23;3.80;;;3.50;;
11125;SDS011;5617;54.046;10.676;2023-06-26T01:42:32;3.63;;;3.43;;
11125;SDS011;5617;54.046;10.676;2023-06-26T01:44:41;3.50;;;3.20;;
11125;SDS011;5617;54.046;10.676;2023-06-26T01:46:54;3.70;;;3.40;;
11125;SDS011;5617;54.046;10.676;2023-06-26T01:49:09;3.80;;;3.40;;
11125;SDS011;5617;54.046;10.676;2023-06-26T01:51:22;4.57;;;3.80;;
11125;SDS011;5617;54.046;10.676;2023-06-26T01:53:38;4.00;;;3.70;;
11125;SDS011;5617;54.046;10.676;2023-06-26T01:55:53;4.20;;;3.80;;
11125;SDS011;5617;54.046;10.676;2023-06-26T01:58:08;4.17;;;3.87;;
11125;SDS011;5617;54.046;10.676;2023-06-26T02:00:17;4.37;;;4.00;;
11125;SDS011;5617;54.046;10.676;2023-06-26T02:02:28;4.27;;;3.97;;
11125;SDS011;5617;54.046;10.676;2023-06-26T02:04:36;4.10;;;3.80;;
11125;SDS011;5617;54.046;10.676;2023-06-26T02:06:44;3.97;;;3.67;;
11125;SDS011;5617;54.046;10.676;2023-06-26T02:08:51;4.40;;;4.00;;
11125;SDS011;5617;54.046;10.676;2023-06-26T02:11:02;4.03;;;3.70;;
11125;SDS011;5617;54.046;10.676;2023-06-26T02:13:11;4.60;;;4.20;;
11125;SDS011;5617;54.046;10.676;2023-06-26T02:15:19;4.83;;;4.43;;
11125;SDS011;5617;54.046;10.676;2023-06-26T02:17:27;4.80;;;4.50;;
11125;SDS011;5617;54.046;10.676;2023-06-26T02:19:34;4.83;;;4.50;;
11125;SDS011;5617;54.046;10.676;2023-06-26T02:21:42;5.00;;;4.50;;
11125;SDS011;5617;54.046;10.676;2023-06-26T02:23:49;5.07;;;4.57;;
11125;SDS011;5617;54.046;10.676;2023-06-26T02:25:57;5.23;;;4.83;;
11125;SDS011;5617;54.046;10.676;2023-06-26T02:28:05;4.97;;;4.57;;
11125;SDS011;5617;54.046;10.676;2023-06-26T02:30:14;5.37;;;4.97;;
11125;SDS011;5617;54.046;10.676;2023-06-26T02:32:21;4.63;;;4.33;;
11125;SDS011;5617;54.046;10.676;2023-06-26T02:34:29;5.17;;;4.77;;
11125;SDS011;5617;54.046;10.676;2023-06-26T02:36:36;4.93;;;4.63;;
11125;SDS011;5617;54.046;10.676;2023-06-26T02:38:45;5.13;;;4.73;;
11125;SDS011;5617;54.046;10.676;2023-06-26T02:40:52;5.23;;;4.80;;
11125;SDS011;5617;54.046;10.676;2023-06-26T02:43:00;5.93;;;5.33;;
11125;SDS011;5617;54.046;10.676;2023-06-26T02:45:08;5.47;;;4.97;;
11125;SDS011;5617;54.046;10.676;2023-06-26T02:47:18;5.27;;;4.87;;
11125;SDS011;5617;54.046;10.676;2023-06-26T02:49:25;5.03;;;4.70;;
11125;SDS011;5617;54.046;10.676;2023-06-26T02:51:33;5.13;;;4.73;;
11125;SDS011;5617;54.046;10.676;2023-06-26T02:53:41;5.53;;;5.03;;
11125;SDS011;5617;54.046;10.676;2023-06-26T02:55:48;5.70;;;5.10;;
11125;SDS011;5617;54.046;10.676;2023-06-26T02:57:56;5.43;;;4.97;;
11125;SDS011;5617;54.046;10.676;2023-06-26T03:00:04;5.73;;;5.23;;
11125;SDS011;5617;54.046;10.676;2023-06-26T03:02:14;6.10;;;5.60;;
11125;SDS011;5617;54.046;10.676;2023-06-26T03:04:23;5.70;;;5.30;;
11125;SDS011;5617;54.046;10.676;2023-06-26T03:06:30;6.03;;;5.60;;
11125;SDS011;5617;54.046;10.676;2023-06-26T03:08:38;6.40;;;5.90;;
11125;SDS011;5617;54.046;10.676;2023-06-26T03:10:46;6.40;;;5.90;;
11125;SDS011;5617;54.046;10.676;2023-06-26T03:12:54;6.47;;;5.87;;
11125;SDS011;5617;54.046;10.676;2023-06-26T03:15:01;6.10;;;5.60;;
11125;SDS011;5617;54.046;10.676;2023-06-26T03:17:09;6.10;;;5.63;;
11125;SDS011;5617;54.046;10.676;2023-06-26T03:19:16;6.57;;;5.97;;
11125;SDS011;5617;54.046;10.676;2023-06-26T03:21:25;6.20;;;5.60;;
11125;SDS011;5617;54.046;10.676;2023-06-26T03:23:33;6.77;;;6.27;;
11125;SDS011;5617;54.046;10.676;2023-06-26T03:25:41;6.47;;;5.97;;
11125;SDS011;5617;54.046;10.676;2023-06-26T03:27:48;6.90;;;6.20;;
11125;SDS011;5617;54.046;10.676;2023-06-26T03:29:56;6.47;;;5.97;;
11125;SDS011;5617;54.046;10.676;2023-06-26T03:32:04;6.73;;;6.23;;
11125;SDS011;5617;54.046;10.676;2023-06-26T03:34:11;7.23;;;6.57;;
11125;SDS011;5617;54.046;10.676;2023-06-26T03:36:19;6.97;;;6.47;;
11125;SDS011;5617;54.046;10.676;2023-06-26T03:38:28;6.67;;;6.17;;
11125;SDS011;5617;54.046;10.676;2023-06-26T03:40:36;6.17;;;5.67;;
11125;SDS011;5617;54.046;10.676;2023-06-26T03:42:44;6.17;;;5.60;;
11125;SDS011;5617;54.046;10.676;2023-06-26T03:44:51;6.97;;;6.37;;
11125;SDS011;5617;54.046;10.676;2023-06-26T03:46:59;6.97;;;6.37;;
11125;SDS011;5617;54.046;10.676;2023-06-26T03:49:07;6.43;;;5.93;;
11125;SDS011;5617;54.046;10.676;2023-06-26T03:51:16;6.10;;;5.60;;
11125;SDS011;5617;54.046;10.676;2023-06-26T03:53:24;7.00;;;6.40;;
11125;SDS011;5617;54.046;10.676;2023-06-26T03:55:33;6.93;;;6.33;;
11125;SDS011;5617;54.046;10.676;2023-06-26T03:57:41;7.13;;;6.53;;
11125;SDS011;5617;54.046;10.676;2023-06-26T03:59:48;7.30;;;6.70;;
11125;SDS011;5617;54.046;10.676;2023-06-26T04:01:56;7.00;;;6.40;;
11125;SDS011;5617;54.046;10.676;2023-06-26T04:04:04;6.70;;;6.13;;
11125;SDS011;5617;54.046;10.676;2023-06-26T04:06:12;7.60;;;7.00;;
11125;SDS011;5617;54.046;10.676;2023-06-26T04:08:19;7.73;;;7.13;;
11125;SDS011;5617;54.046;10.676;2023-06-26T04:10:27;7.60;;;7.00;;
11125;SDS011;5617;54.046;10.676;2023-06-26T04:12:36;8.00;;;7.40;;
11125;SDS011;5617;54.046;10.676;2023-06-26T04:14:44;7.53;;;6.93;;
11125;SDS011;5617;54.046;10.676;2023-06-26T04:16:51;7.40;;;6.80;;
11125;SDS011;5617;54.046;10.676;2023-06-26T04:18:59;7.37;;;6.77;;
11125;SDS011;5617;54.046;10.676;2023-06-26T04:21:09;7.63;;;7.03;;
11125;SDS011;5617;54.046;10.676;2023-06-26T04:23:18;7.40;;;6.90;;
11125;SDS011;5617;54.046;10.676;2023-06-26T04:25:25;7.57;;;6.87;;
11125;SDS011;5617;54.046;10.676;2023-06-26T04:27:36;6.70;;;6.20;;
11125;SDS011;5617;54.046;10.676;2023-06-26T04:29:46;7.60;;;6.80;;
11125;SDS011;5617;54.046;10.676;2023-06-26T04:31:54;6.87;;;6.37;;
11125;SDS011;5617;54.046;10.676;2023-06-26T04:34:03;7.93;;;7.13;;
11125;SDS011;5617;54.046;10.676;2023-06-26T04:36:11;6.47;;;5.97;;
11125;SDS011;5617;54.046;10.676;2023-06-26T04:38:19;6.17;;;5.57;;
11125;SDS011;5617;54.046;10.676;2023-06-26T04:40:27;6.00;;;5.50;;
11125;SDS011;5617;54.046;10.676;2023-06-26T04:42:36;5.53;;;5.03;;
11125;SDS011;5617;54.046;10.676;2023-06-26T04:44:43;5.97;;;5.47;;
11125;SDS011;5617;54.046;10.676;2023-06-26T04:46:51;5.33;;;4.93;;
11125;SDS011;5617;54.046;10.676;2023-06-26T04:48:59;5.73;;;5.33;;
11125;SDS011;5617;54.046;10.676;2023-06-26T04:51:09;5.97;;;5.37;;
11125;SDS011;5617;54.046;10.676;2023-06-26T04:53:16;5.80;;;5.23;;
11125;SDS011;5617;54.046;10.676;2023-06-26T04:55:24;5.30;;;4.90;;
11125;SDS011;5617;54.046;10.676;2023-06-26T04:57:32;5.67;;;5.20;;
11125;SDS011;5617;54.046;10.676;2023-06-26T04:59:41;5.40;;;5.00;;
11125;SDS011;5617;54.046;10.676;2023-06-26T05:01:48;5.93;;;5.23;;
11125;SDS011;5617;54.046;10.676;2023-06-26T05:03:57;5.87;;;5.37;;
11125;SDS011;5617;54.046;10.676;2023-06-26T05:06:05;5.80;;;5.30;;
11125;SDS011;5617;54.046;10.676;2023-06-26T05:08:15;5.40;;;5.00;;
11125;SDS011;5617;54.046;10.676;2023-06-26T05:10:23;5.77;;;5.23;;
11125;SDS011;5617;54.046;10.676;2023-06-26T05:12:31;6.27;;;5.67;;
11125;SDS011;5617;54.046;10.676;2023-06-26T05:14:39;5.50;;;5.10;;
11125;SDS011;5617;54.046;10.676;2023-06-26T05:16:47;5.77;;;5.27;;
11125;SDS011;5617;54.046;10.676;2023-06-26T05:18:56;6.20;;;5.60;;
11125;SDS011;5617;54.046;10.676;2023-06-26T05:21:04;5.60;;;5.10;;
11125;SDS011;5617;54.046;10.676;2023-06-26T05:23:12;5.70;;;5.13;;
11125;SDS011;5617;54.046;10.676;2023-06-26T05:25:20;5.67;;;5.17;;
11125;SDS011;5617;54.046;10.676;2023-06-26T05:27:30;5.73;;;5.33;;
11125;SDS011;5617;54.046;10.676;2023-06-26T05:29:38;5.93;;;5.50;;
11125;SDS011;5617;54.046;10.676;2023-06-26T05:31:47;6.23;;;5.63;;
11125;SDS011;5617;54.046;10.676;2023-06-26T05:33:57;5.97;;;5.40;;
11125;SDS011;5617;54.046;10.676;2023-06-26T05:36:07;6.67;;;5.57;;
11125;SDS011;5617;54.046;10.676;2023-06-26T05:38:16;6.80;;;5.10;;
11125;SDS011;5617;54.046;10.676;2023-06-26T05:40:24;5.53;;;5.13;;
11125;SDS011;5617;54.046;10.676;2023-06-26T05:42:33;5.70;;;5.20;;
11125;SDS011;5617;54.046;10.676;2023-06-26T05:44:44;5.20;;;4.80;;
11125;SDS011;5617;54.046;10.676;2023-06-26T05:46:53;5.93;;;5.50;;
11125;SDS011;5617;54.046;10.676;2023-06-26T05:49:01;5.70;;;5.30;;
11125;SDS011;5617;54.046;10.676;2023-06-26T05:51:09;5.60;;;5.20;;
11125;SDS011;5617;54.046;10.676;2023-06-26T05:53:17;5.30;;;4.90;;
11125;SDS011;5617;54.046;10.676;2023-06-26T05:55:26;6.30;;;5.70;;
11125;SDS011;5617;54.046;10.676;2023-06-26T05:57:33;5.73;;;5.23;;
11125;SDS011;5617;54.046;10.676;2023-06-26T05:59:44;6.77;;;6.13;;
11125;SDS011;5617;54.046;10.676;2023-06-26T06:01:54;5.30;;;4.90;;
11125;SDS011;5617;54.046;10.676;2023-06-26T06:04:02;5.40;;;4.90;;
11125;SDS011;5617;54.046;10.676;2023-06-26T06:06:10;5.73;;;5.13;;
11125;SDS011;5617;54.046;10.676;2023-06-26T06:08:18;5.30;;;4.90;;
11125;SDS011;5617;54.046;10.676;2023-06-26T06:10:26;5.33;;;4.90;;
11125;SDS011;5617;54.046;10.676;2023-06-26T06:12:33;5.23;;;4.83;;
11125;SDS011;5617;54.046;10.676;2023-06-26T06:14:41;5.57;;;5.07;;
11125;SDS011;5617;54.046;10.676;2023-06-26T06:16:49;4.77;;;4.47;;
11125;SDS011;5617;54.046;10.676;2023-06-26T06:18:58;5.10;;;4.70;;
11125;SDS011;5617;54.046;10.676;2023-06-26T06:21:05;5.20;;;4.80;;
11125;SDS011;5617;54.046;10.676;2023-06-26T06:23:13;5.00;;;4.60;;
11125;SDS011;5617;54.046;10.676;2023-06-26T06:25:21;5.03;;;4.63;;
11125;SDS011;5617;54.046;10.676;2023-06-26T06:27:28;5.00;;;4.63;;
11125;SDS011;5617;54.046;10.676;2023-06-26T06:29:36;4.90;;;4.50;;
11125;SDS011;5617;54.046;10.676;2023-06-26T06:31:44;5.00;;;4.60;;
11125;SDS011;5617;54.046;10.676;2023-06-26T06:33:52;4.87;;;4.57;;
11125;SDS011;5617;54.046;10.676;2023-06-26T06:36:01;5.20;;;4.07;;
11125;SDS011;5617;54.046;10.676;2023-06-26T06:38:09;4.83;;;4.50;;
11125;SDS011;5617;54.046;10.676;2023-06-26T06:40:16;4.77;;;4.37;;
11125;SDS011;5617;54.046;10.676;2023-06-26T06:42:24;5.80;;;4.30;;
11125;SDS011;5617;54.046;10.676;2023-06-26T06:44:31;4.53;;;4.20;;
11125;SDS011;5617;54.046;10.676;2023-06-26T06:46:39;4.57;;;4.17;;
11125;SDS011;5617;54.046;10.676;2023-06-26T06:48:47;4.60;;;4.30;;
11125;SDS011;5617;54.046;10.676;2023-06-26T06:50:54;5.40;;;4.80;;
11125;SDS011;5617;54.046;10.676;2023-06-26T06:53:04;6.47;;;5.87;;
11125;SDS011;5617;54.046;10.676;2023-06-26T06:55:11;5.87;;;4.43;;
11125;SDS011;5617;54.046;10.676;2023-06-26T06:57:19;4.60;;;4.30;;
11125;SDS011;5617;54.046;10.676;2023-06-26T06:59:27;4.60;;;4.17;;
11125;SDS011;5617;54.046;10.676;2023-06-26T07:01:35;4.40;;;4.10;;
11125;SDS011;5617;54.046;10.676;2023-06-26T07:03:43;4.87;;;4.33;;
11125;SDS011;5617;54.046;10.676;2023-06-26T07:05:50;4.77;;;4.37;;
11125;SDS011;5617;54.046;10.676;2023-06-26T07:07:58;4.90;;;4.40;;
11125;SDS011;5617;54.046;10.676;2023-06-26T07:10:11;4.27;;;3.97;;
11125;SDS011;5617;54.046;10.676;2023-06-26T07:12:20;4.37;;;4.03;;
11125;SDS011;5617;54.046;10.676;2023-06-26T07:14:27;4.70;;;4.27;;
11125;SDS011;5617;54.046;10.676;2023-06-26T07:16:35;4.67;;;4.30;;
11125;SDS011;5617;54.046;10.676;2023-06-26T07:18:43;4.77;;;4.07;;
11125;SDS011;5617;54.046;10.676;2023-06-26T07:20:51;4.63;;;4.33;;
11125;SDS011;5617;54.046;10.676;2023-06-26T07:22:59;4.30;;;3.90;;
11125;SDS011;5617;54.046;10.676;2023-06-26T07:25:07;4.30;;;3.90;;
11125;SDS011;5617;54.046;10.676;2023-06-26T07:27:17;4.40;;;4.10;;
11125;SDS011;5617;54.046;10.676;2023-06-26T07:29:28;4.87;;;3.80;;
11125;SDS011;5617;54.046;10.676;2023-06-26T07:31:36;4.07;;;3.77;;
11125;SDS011;5617;54.046;10.676;2023-06-26T07:33:43;4.23;;;3.93;;
11125;SDS011;5617;54.046;10.676;2023-06-26T07:35:51;4.33;;;4.03;;
11125;SDS011;5617;54.046;10.676;2023-06-26T07:37:59;4.57;;;3.90;;
11125;SDS011;5617;54.046;10.676;2023-06-26T07:40:07;4.10;;;3.80;;
11125;SDS011;5617;54.046;10.676;2023-06-26T07:42:17;3.93;;;3.63;;
11125;SDS011;5617;54.046;10.676;2023-06-26T07:44:26;4.13;;;3.83;;
11125;SDS011;5617;54.046;10.676;2023-06-26T07:46:33;4.23;;;3.83;;
11125;SDS011;5617;54.046;10.676;2023-06-26T07:48:41;4.13;;;3.83;;
11125;SDS011;5617;54.046;10.676;2023-06-26T07:50:49;4.20;;;3.90;;
11125;SDS011;5617;54.046;10.676;2023-06-26T07:52:56;4.30;;;3.90;;
11125;SDS011;5617;54.046;10.676;2023-06-26T07:55:05;3.77;;;3.57;;
11125;SDS011;5617;54.046;10.676;2023-06-26T07:57:13;3.83;;;3.53;;
11125;SDS011;5617;54.046;10.676;2023-06-26T07:59:22;3.97;;;3.60;;
11125;SDS011;5617;54.046;10.676;2023-06-26T08:01:30;3.90;;;3.60;;
11125;SDS011;5617;54.046;10.676;2023-06-26T08:03:38;4.20;;;3.80;;
11125;SDS011;5617;54.046;10.676;2023-06-26T08:05:46;4.30;;;3.90;;
11125;SDS011;5617;54.046;10.676;2023-06-26T08:07:53;5.00;;;4.50;;
11125;SDS011;5617;54.046;10.676;2023-06-26T08:10:01;4.40;;;4.00;;
11125;SDS011;5617;54.046;10.676;2023-06-26T08:12:09;5.67;;;5.00;;
11125;SDS011;5617;54.046;10.676;2023-06-26T08:14:18;3.80;;;3.50;;
11125;SDS011;5617;54.046;10.676;2023-06-26T08:16:28;4.00;;;3.70;;
11125;SDS011;5617;54.046;10.676;2023-06-26T08:18:35;4.07;;;3.67;;
11125;SDS011;5617;54.046;10.676;2023-06-26T08:20:43;4.13;;;3.77;;
11125;SDS011;5617;54.046;10.676;2023-06-26T08:22:51;4.70;;;3.50;;
11125;SDS011;5617;54.046;10.676;2023-06-26T08:25:00;4.57;;;3.83;;
11125;SDS011;5617;54.046;10.676;2023-06-26T08:27:09;3.93;;;3.73;;
11125;SDS011;5617;54.046;10.676;2023-06-26T08:29:17;4.17;;;3.87;;
11125;SDS011;5617;54.046;10.676;2023-06-26T08:31:25;4.27;;;3.87;;
11125;SDS011;5617;54.046;10.676;2023-06-26T08:33:34;4.27;;;3.97;;
11125;SDS011;5617;54.046;10.676;2023-06-26T08:35:41;3.87;;;3.57;;
11125;SDS011;5617;54.046;10.676;2023-06-26T08:37:49;3.73;;;3.53;;
11125;SDS011;5617;54.046;10.676;2023-06-26T08:39:57;3.67;;;3.37;;
11125;SDS011;5617;54.046;10.676;2023-06-26T08:42:05;4.33;;;3.93;;
11125;SDS011;5617;54.046;10.676;2023-06-26T08:44:13;3.93;;;3.60;;
11125;SDS011;5617;54.046;10.676;2023-06-26T08:46:21;4.07;;;3.77;;
11125;SDS011;5617;54.046;10.676;2023-06-26T08:48:29;4.00;;;3.70;;
11125;SDS011;5617;54.046;10.676;2023-06-26T08:50:40;4.00;;;3.60;;
11125;SDS011;5617;54.046;10.676;2023-06-26T08:52:50;3.70;;;3.40;;
11125;SDS011;5617;54.046;10.676;2023-06-26T08:55:06;4.20;;;3.80;;
11125;SDS011;5617;54.046;10.676;2023-06-26T08:57:18;4.07;;;3.73;;
11125;SDS011;5617;54.046;10.676;2023-06-26T08:59:26;4.20;;;3.77;;
11125;SDS011;5617;54.046;10.676;2023-06-26T09:03:50;4.13;;;3.83;;
11125;SDS011;5617;54.046;10.676;2023-06-26T09:06:00;4.10;;;3.70;;
11125;SDS011;5617;54.046;10.676;2023-06-26T09:08:07;4.20;;;3.80;;
11125;SDS011;5617;54.046;10.676;2023-06-26T09:10:16;4.23;;;3.83;;
11125;SDS011;5617;54.046;10.676;2023-06-26T09:12:23;4.63;;;3.70;;
11125;SDS011;5617;54.046;10.676;2023-06-26T09:14:33;4.40;;;4.10;;
11125;SDS011;5617;54.046;10.676;2023-06-26T09:16:42;4.10;;;3.63;;
11125;SDS011;5617;54.046;10.676;2023-06-26T09:18:50;4.30;;;4.00;;
11125;SDS011;5617;54.046;10.676;2023-06-26T09:21:00;4.23;;;3.93;;
11125;SDS011;5617;54.046;10.676;2023-06-26T09:23:14;4.60;;;4.07;;
11125;SDS011;5617;54.046;10.676;2023-06-26T09:25:21;4.27;;;3.87;;
11125;SDS011;5617;54.046;10.676;2023-06-26T09:27:29;4.40;;;4.10;;
11125;SDS011;5617;54.046;10.676;2023-06-26T09:29:37;4.60;;;4.20;;
11125;SDS011;5617;54.046;10.676;2023-06-26T09:31:45;4.80;;;4.30;;
11125;SDS011;5617;54.046;10.676;2023-06-26T09:33:55;4.70;;;4.30;;
11125;SDS011;5617;54.046;10.676;2023-06-26T09:36:06;4.40;;;4.10;;
11125;SDS011;5617;54.046;10.676;2023-06-26T09:38:15;4.53;;;4.13;;
11125;SDS011;5617;54.046;10.676;2023-06-26T09:40:25;4.37;;;3.90;;
11125;SDS011;5617;54.046;10.676;2023-06-26T09:42:33;5.13;;;4.30;;
11125;SDS011;5617;54.046;10.676;2023-06-26T09:44:43;4.60;;;4.20;;
11125;SDS011;5617;54.046;10.676;2023-06-26T09:46:51;5.27;;;4.40;;
11125;SDS011;5617;54.046;10.676;2023-06-26T09:49:00;4.53;;;4.13;;
11125;SDS011;5617;54.046;10.676;2023-06-26T09:51:11;4.53;;;4.13;;
11125;SDS011;5617;54.046;10.676;2023-06-26T09:53:20;4.43;;;4.13;;
11125;SDS011;5617;54.046;10.676;2023-06-26T09:55:28;4.47;;;4.07;;
11125;SDS011;5617;54.046;10.676;2023-06-26T09:57:36;4.53;;;4.07;;
11125;SDS011;5617;54.046;10.676;2023-06-26T09:59:45;4.40;;;4.07;;
11125;SDS011;5617;54.046;10.676;2023-06-26T10:01:58;4.97;;;4.47;;
11125;SDS011;5617;54.046;10.676;2023-06-26T10:04:06;6.53;;;4.53;;
11125;SDS011;5617;54.046;10.676;2023-06-26T10:06:17;4.90;;;4.50;;
11125;SDS011;5617;54.046;10.676;2023-06-26T10:08:30;4.30;;;4.00;;
11125;SDS011;5617;54.046;10.676;2023-06-26T10:10:40;5.47;;;4.60;;
11125;SDS011;5617;54.046;10.676;2023-06-26T10:12:49;4.70;;;4.30;;
11125;SDS011;5617;54.046;10.676;2023-06-26T10:15:02;5.63;;;4.53;;
11125;SDS011;5617;54.046;10.676;2023-06-26T10:17:11;5.70;;;5.07;;
11125;SDS011;5617;54.046;10.676;2023-06-26T10:19:22;7.33;;;5.10;;
11125;SDS011;5617;54.046;10.676;2023-06-26T10:21:33;7.37;;;5.60;;
11125;SDS011;5617;54.046;10.676;2023-06-26T10:23:42;5.70;;;5.23;;
11125;SDS011;5617;54.046;10.676;2023-06-26T10:25:52;10.07;;;5.60;;
11125;SDS011;5617;54.046;10.676;2023-06-26T10:28:02;6.30;;;5.70;;
11125;SDS011;5617;54.046;10.676;2023-06-26T10:30:12;16.83;;;6.30;;
11125;SDS011;5617;54.046;10.676;2023-06-26T10:32:23;7.60;;;6.90;;
11125;SDS011;5617;54.046;10.676;2023-06-26T10:34:32;13.17;;;6.90;;
11125;SDS011;5617;54.046;10.676;2023-06-26T10:36:42;12.10;;;7.40;;
11125;SDS011;5617;54.046;10.676;2023-06-26T10:38:50;11.07;;;7.27;;
11125;SDS011;5617;54.046;10.676;2023-06-26T10:40:59;9.10;;;6.20;;
11125;SDS011;5617;54.046;10.676;2023-06-26T10:43:18;9.43;;;5.80;;
11125;SDS011;5617;54.046;10.676;2023-06-26T10:45:27;6.40;;;5.70;;
11125;SDS011;5617;54.046;10.676;2023-06-26T10:47:35;8.83;;;5.87;;
11125;SDS011;5617;54.046;10.676;2023-06-26T10:49:43;5.70;;;5.13;;
11125;SDS011;5617;54.046;10.676;2023-06-26T10:52:09;5.47;;;4.80;;
11125;SDS011;5617;54.046;10.676;2023-06-26T10:54:18;5.77;;;4.60;;
11125;SDS011;5617;54.046;10.676;2023-06-26T10:56:42;8.57;;;4.87;;
11125;SDS011;5617;54.046;10.676;2023-06-26T10:58:51;5.13;;;3.97;;
11125;SDS011;5617;54.046;10.676;2023-06-26T11:01:13;7.07;;;4.00;;
11125;SDS011;5617;54.046;10.676;2023-06-26T11:03:29;4.40;;;3.90;;
11125;SDS011;5617;54.046;10.676;2023-06-26T11:05:37;4.37;;;4.00;;
11125;SDS011;5617;54.046;10.676;2023-06-26T11:08:03;11.37;;;4.90;;
11125;SDS011;5617;54.046;10.676;2023-06-26T11:10:13;5.70;;;4.43;;
11125;SDS011;5617;54.046;10.676;2023-06-26T11:12:33;4.60;;;4.10;;
11125;SDS011;5617;54.046;10.676;2023-06-26T11:14:42;6.07;;;4.30;;
11125;SDS011;5617;54.046;10.676;2023-06-26T11:16:54;4.10;;;3.70;;
11125;SDS011;5617;54.046;10.676;2023-06-26T11:19:03;5.50;;;4.20;;
11125;SDS011;5617;54.046;10.676;2023-06-26T11:21:12;4.97;;;3.77;;
11125;SDS011;5617;54.046;10.676;2023-06-26T11:23:22;4.70;;;3.87;;
11125;SDS011;5617;54.046;10.676;2023-06-26T11:25:33;5.63;;;3.60;;
11125;SDS011;5617;54.046;10.676;2023-06-26T11:27:42;4.60;;;3.27;;
11125;SDS011;5617;54.046;10.676;2023-06-26T11:29:50;4.50;;;3.53;;
11125;SDS011;5617;54.046;10.676;2023-06-26T11:31:58;9.07;;;3.43;;
11125;SDS011;5617;54.046;10.676;2023-06-26T11:34:13;4.90;;;3.50;;
11125;SDS011;5617;54.046;10.676;2023-06-26T11:36:22;3.63;;;2.97;;
11125;SDS011;5617;54.046;10.676;2023-06-26T11:38:37;3.33;;;3.03;;
11125;SDS011;5617;54.046;10.676;2023-06-26T11:40:46;6.67;;;3.43;;
11125;SDS011;5617;54.046;10.676;2023-06-26T11:42:55;5.47;;;3.67;;
11125;SDS011;5617;54.046;10.676;2023-06-26T11:45:04;4.73;;;3.50;;
11125;SDS011;5617;54.046;10.676;2023-06-26T11:47:14;4.07;;;3.70;;
11125;SDS011;5617;54.046;10.676;2023-06-26T11:49:22;5.03;;;4.07;;
11125;SDS011;5617;54.046;10.676;2023-06-26T11:51:32;4.50;;;4.10;;
11125;SDS011;5617;54.046;10.676;2023-06-26T11:53:42;5.27;;;4.30;;
11125;SDS011;5617;54.046;10.676;2023-06-26T11:55:50;4.90;;;4.40;;
11125;SDS011;5617;54.046;10.676;2023-06-26T11:57:58;5.70;;;5.17;;
11125;SDS011;5617;54.046;10.676;2023-06-26T12:00:12;5.90;;;5.33;;
11125;SDS011;5617;54.046;10.676;2023-06-26T12:02:23;5.57;;;5.07;;
11125;SDS011;5617;54.046;10.676;2023-06-26T12:04:31;5.73;;;5.17;;
11125;SDS011;5617;54.046;10.676;2023-06-26T12:06:41;6.37;;;5.40;;
11125;SDS011;5617;54.046;10.676;2023-06-26T12:08:55;6.43;;;5.57;;
11125;SDS011;5617;54.046;10.676;2023-06-26T12:11:03;6.27;;;5.67;;
11125;SDS011;5617;54.046;10.676;2023-06-26T12:13:12;6.17;;;5.57;;
11125;SDS011;5617;54.046;10.676;2023-06-26T12:15:20;7.20;;;5.60;;
11125;SDS011;5617;54.046;10.676;2023-06-26T12:17:28;6.30;;;5.70;;
11125;SDS011;5617;54.046;10.676;2023-06-26T12:19:37;7.23;;;5.70;;
11125;SDS011;5617;54.046;10.676;2023-06-26T12:21:46;7.10;;;5.17;;
11125;SDS011;5617;54.046;10.676;2023-06-26T12:23:59;5.67;;;4.97;;
11125;SDS011;5617;54.046;10.676;2023-06-26T12:26:17;6.67;;;5.30;;
11125;SDS011;5617;54.046;10.676;2023-06-26T12:28:35;5.73;;;4.50;;
11125;SDS011;5617;54.046;10.676;2023-06-26T12:30:47;5.80;;;4.33;;
11125;SDS011;5617;54.046;10.676;2023-06-26T12:32:54;5.07;;;4.13;;
11125;SDS011;5617;54.046;10.676;2023-06-26T12:35:02;5.20;;;3.80;;
11125;SDS011;5617;54.046;10.676;2023-06-26T12:37:11;6.70;;;4.57;;
11125;SDS011;5617;54.046;10.676;2023-06-26T12:39:21;7.07;;;3.83;;
11125;SDS011;5617;54.046;10.676;2023-06-26T12:41:28;5.30;;;3.53;;
11125;SDS011;5617;54.046;10.676;2023-06-26T12:43:37;6.63;;;3.80;;
11125;SDS011;5617;54.046;10.676;2023-06-26T12:45:46;6.30;;;3.63;;
11125;SDS011;5617;54.046;10.676;2023-06-26T12:47:53;6.27;;;3.33;;
11125;SDS011;5617;54.046;10.676;2023-06-26T12:50:04;2.87;;;1.90;;
11125;SDS011;5617;54.046;10.676;2023-06-26T12:52:13;3.77;;;1.93;;
11125;SDS011;5617;54.046;10.676;2023-06-26T12:54:23;4.53;;;1.90;;
11125;SDS011;5617;54.046;10.676;2023-06-26T12:56:31;3.17;;;1.73;;
11125;SDS011;5617;54.046;10.676;2023-06-26T12:58:38;4.13;;;1.77;;
11125;SDS011;5617;54.046;10.676;2023-06-26T13:00:46;4.63;;;2.07;;